map of TAE home
TAE - Airport
Location
City:  Daegu, Republic of Korea (South Korea)
Near (Alt.):Taegu
Name:Daegu International Airport
ICAO:RKTN
IATA:TAE

Details
Type:Airport (Aerodrome, Airfield)
Use:Military, International (customs port of entry)
Latitude:35°53'39"N (35.894108)
Longitude:128°39'32"E (128.658856)
Datum:WGS 1984
Elevation:116 ft (35 m)
Variation:8.15°W (WMM2015 magnetic declination)
-0.07° annual change
Runways:2
Longest:9039 × 150 ft (2755 × 45.5 m), paved

Time
Time Zone:UTC+9
Local Time:

Weather
METAR:RKTN 162100Z 30008KT 9999 SCT040 M01/M09 Q1022
TAF:RKTN 161700Z 1618/1724 30006KT 9999 SCT040 TNM05/1621Z TX06/1706Z

Related Locations
Nearby:
Farthest:CTQ: 12234 mi / 19688 km
Santa Vitória do Palmar [Aeropuerto Fernando Ferrari], RS, BR

Find:

   beyond  
but within

Other Information
Maps:
NOTAMs:
Links:
Sources:

  
  • flag of Republic of Korea (South Korea)
  

Airport Diagram

Airport diagram for TAE

Larger airport diagram (OBSOLETE) from NGA

Sectional Chart

Flight Planning
at skyvector.com

Satellite Image

Google Maps Satellite view

 

Copyright © 2004-2019 Karl L. Swartz. All rights reserved.
The Great Circle Mapper name and logo are trademarks of the Great Circle Mapper.
All other trademarks mentioned herein belong to their respective owners.
Please see credits for attibutions and further copyright information.

  Follow gcmap on Facebook Follow gcmap on Twitter Follow gcmap on Google+ GCmap on LinkedIn

hCard Microformat

Geo Microformat